Time;durP1;ratioP1;P1;durP2;ratioP2;P2;SDS_P1;SDS_P2;PMS_P1;PMS_P2;Temp;Humidity;BMP_temperature;BMP_pressure;BME280_temperature;BME280_humidity;BME280_pressure;Samples;Min_cycle;Max_cycle;Signal;HPM_P1;HPM_P2
2023/05/27 00:01:40;;;;;;;;;;;17.40;76.50;;;16.60;nan;96350.25;4954087;29;19922;-85
2023/05/27 00:04:09;;;;;;;;;;;17.40;76.50;;;16.61;nan;96346.38;4938262;29;19922;-85
2023/05/27 00:06:37;;;;;;;;;;;17.40;76.40;;;16.62;nan;96342.50;4938312;29;19922;-85
2023/05/27 00:09:05;;;;;;;;;;;17.40;76.40;;;16.62;nan;96342.50;4953413;29;20221;-85
2023/05/27 00:11:33;;;;;;;;;;;17.40;76.40;;;16.62;nan;96342.50;4938062;29;19922;-86
2023/05/27 00:14:01;;;;;;;;;;;17.40;76.20;;;16.63;nan;96341.38;4954009;29;19922;-85
2023/05/27 00:16:31;;;;;;;;;;;17.40;76.20;;;16.62;nan;96336.97;4938202;29;19923;-86
2023/05/27 00:19:00;;;;;;;;;;;17.40;76.10;;;16.63;nan;96336.69;4937323;29;19923;-85
2023/05/27 00:21:30;;;;;;;;;;;17.40;76.00;;;16.63;nan;96333.06;4938224;29;19922;-86
2023/05/27 00:23:59;;;;;;;;;;;17.40;76.00;;;16.64;nan;96334.72;4954276;29;19979;-85
2023/05/27 00:26:28;;;;;;;;;;;17.40;76.00;;;16.63;nan;96344.13;4953956;29;19929;-86
2023/05/27 00:28:56;;;;;;;;;;;17.40;75.80;;;16.62;nan;96348.03;4953473;29;19929;-85
2023/05/27 00:31:25;;;;;;;;;;;17.40;75.50;;;16.60;nan;96340.03;4953853;29;19929;-85
2023/05/27 00:33:55;;;;;;;;;;;17.40;75.40;;;16.59;nan;96338.41;4938109;29;19928;-85
2023/05/27 00:36:26;;;;;;;;;;;17.40;75.40;;;16.58;nan;96341.50;4953879;29;19922;-85
2023/05/27 00:38:56;;;;;;;;;;;17.40;75.40;;;16.58;nan;96335.97;4953068;29;19923;-85
2023/05/27 00:41:26;;;;;;;;;;;17.40;75.30;;;16.56;nan;96342.59;4937757;29;19922;-86
2023/05/27 00:43:55;;;;;;;;;;;17.30;75.30;;;16.55;nan;96338.22;4953769;29;19922;-85
2023/05/27 00:46:23;;;;;;;;;;;17.30;75.10;;;16.52;nan;96341.56;4938305;29;19922;-85
2023/05/27 00:48:54;;;;;;;;;;;17.30;74.80;;;16.50;nan;96335.53;4937241;29;19922;-85
2023/05/27 00:51:23;;;;;;;;;;;17.30;74.90;;;16.48;nan;96329.47;4937700;29;19923;-85
2023/05/27 00:53:52;;;;;;;;;;;17.30;74.90;;;16.48;nan;96335.00;4936892;29;19934;-85
2023/05/27 00:56:22;;;;;;;;;;;17.30;75.00;;;16.48;nan;96332.25;4937601;29;19930;-85
2023/05/27 00:58:51;;;;;;;;;;;17.30;75.10;;;16.47;nan;96330.59;4952910;29;19929;-85
2023/05/27 01:01:20;;;;;;;;;;;17.30;75.10;;;16.48;nan;96331.44;4937539;29;19929;-85
2023/05/27 01:03:50;;;;;;;;;;;17.30;75.10;;;16.48;nan;96332.25;4937539;29;19929;-85
2023/05/27 01:06:28;;;;;;;;;;;17.30;74.90;;;16.46;nan;96330.91;4937611;29;19937;-86
2023/05/27 01:09:03;;;;;;;;;;;17.30;74.80;;;16.46;nan;96325.41;4936911;29;19930;-85
2023/05/27 01:11:39;;;;;;;;;;;17.30;74.60;;;16.44;nan;96331.25;4954180;29;19931;-85
2023/05/27 01:14:10;;;;;;;;;;;17.20;74.30;;;16.43;nan;96332.38;4937361;29;19922;-85
2023/05/27 01:16:40;;;;;;;;;;;17.20;74.30;;;16.42;nan;96333.50;4953220;29;19948;-85
2023/05/27 01:19:11;;;;;;;;;;;17.20;74.10;;;16.39;nan;96331.31;4936759;29;19923;-85
2023/05/27 01:21:44;;;;;;;;;;;17.20;74.00;;;16.38;nan;96335.22;4952993;29;19923;-85
2023/05/27 01:24:15;;;;;;;;;;;17.20;74.00;;;16.37;nan;96330.81;4937104;29;19929;-85
2023/05/27 01:26:43;;;;;;;;;;;17.20;74.10;;;16.36;nan;96334.69;4936995;29;20118;-85
2023/05/27 01:29:12;;;;;;;;;;;17.20;74.00;;;16.35;nan;96338.56;4952520;29;19929;-85
2023/05/27 01:31:45;;;;;;;;;;;17.20;73.90;;;16.33;nan;96329.78;4937255;29;19945;-86
2023/05/27 01:34:18;;;;;;;;;;;17.20;73.80;;;16.34;nan;96340.53;4937104;29;19923;-85
2023/05/27 01:36:50;;;;;;;;;;;17.10;74.10;;;16.33;nan;96341.66;4937151;29;19929;-85
2023/05/27 01:39:20;;;;;;;;;;;17.10;74.20;;;16.33;nan;96341.66;4936318;29;19929;-85
2023/05/27 01:41:51;;;;;;;;;;;17.10;73.80;;;16.31;nan;96349.41;4953294;29;19923;-85
2023/05/27 01:44:19;;;;;;;;;;;17.10;73.70;;;16.31;nan;96351.38;4936972;29;19929;-85
2023/05/27 01:46:49;;;;;;;;;;;17.10;73.50;;;16.30;nan;96352.50;4936674;29;19923;-85
2023/05/27 01:49:20;;;;;;;;;;;17.10;73.40;;;16.28;nan;96360.25;4953197;29;19922;-85
2023/05/27 01:51:54;;;;;;;;;;;17.10;73.20;;;16.25;nan;96356.97;4936688;29;19929;-85
2023/05/27 01:54:25;;;;;;;;;;;17.10;73.30;;;16.24;nan;96352.59;4936983;29;19922;-85
2023/05/27 01:56:56;;;;;;;;;;;17.10;73.30;;;16.23;nan;96353.69;4952560;29;19923;-85
2023/05/27 01:59:25;;;;;;;;;;;17.10;73.40;;;16.24;nan;96354.53;4936071;29;19923;-85
2023/05/27 02:01:54;;;;;;;;;;;17.10;73.60;;;16.22;nan;96365.88;4936595;29;19923;-85
2023/05/27 02:04:23;;;;;;;;;;;17.10;73.30;;;16.21;nan;96355.94;4936714;29;19922;-85
2023/05/27 02:06:51;;;;;;;;;;;17.00;72.80;;;16.18;nan;96351.03;4952628;29;19937;-85
2023/05/27 02:09:20;;;;;;;;;;;17.00;72.80;;;16.17;nan;96360.44;4935915;29;19923;-85
2023/05/27 02:11:52;;;;;;;;;;;17.00;72.80;;;16.17;nan;96363.22;4936349;29;19930;-85
2023/05/27 02:14:20;;;;;;;;;;;17.00;72.90;;;16.14;nan;96366.56;4936568;29;19929;-85
2023/05/27 02:16:50;;;;;;;;;;;17.00;72.90;;;16.15;nan;96365.44;4936099;29;19927;-85
2023/05/27 02:19:20;;;;;;;;;;;17.00;72.90;;;16.14;nan;96361.06;4936138;29;19929;-85
2023/05/27 02:21:49;;;;;;;;;;;17.00;72.90;;;16.13;nan;96359.41;4936126;29;19923;-85
2023/05/27 02:24:18;;;;;;;;;;;17.00;73.00;;;16.13;nan;96362.16;4936462;29;19923;-85
2023/05/27 02:26:46;;;;;;;;;;;17.00;73.00;;;16.12;nan;96360.53;4936298;29;19922;-85
2023/05/27 02:29:16;;;;;;;;;;;17.00;73.00;;;16.13;nan;96364.13;4935786;29;19944;-85
2023/05/27 02:31:45;;;;;;;;;;;17.00;72.80;;;16.11;nan;96367.16;4952167;29;19923;-85
2023/05/27 02:34:14;;;;;;;;;;;16.90;72.80;;;16.10;nan;96358.09;4936522;29;19926;-85
2023/05/27 02:36:44;;;;;;;;;;;16.90;72.80;;;16.11;nan;96361.66;4952069;29;19923;-84
2023/05/27 02:39:16;;;;;;;;;;;16.90;72.80;;;16.09;nan;96358.38;4935757;29;19923;-85
2023/05/27 02:41:45;;;;;;;;;;;16.90;72.80;;;16.08;nan;96365.00;4951805;29;19929;-85
2023/05/27 02:44:18;;;;;;;;;;;16.90;72.80;;;16.08;nan;96356.72;4952322;29;19922;-85
2023/05/27 02:46:47;;;;;;;;;;;16.90;72.60;;;16.06;nan;96353.47;4936097;29;19922;-84
2023/05/27 02:49:19;;;;;;;;;;;16.90;72.40;;;16.04;nan;96358.47;4935396;29;19923;-85
2023/05/27 02:51:48;;;;;;;;;;;16.90;72.30;;;16.02;nan;96361.50;4951274;29;19929;-85
2023/05/27 02:54:16;;;;;;;;;;;16.90;72.40;;;16.03;nan;96360.41;4936126;29;19929;-84
2023/05/27 02:56:45;;;;;;;;;;;16.90;72.70;;;16.03;nan;96351.31;4935882;29;19928;-85
2023/05/27 02:59:14;;;;;;;;;;;16.90;72.80;;;16.03;nan;96354.88;4950884;29;19923;-84
2023/05/27 03:01:43;;;;;;;;;;;16.90;72.90;;;16.03;nan;96354.88;4935083;29;19922;-84
2023/05/27 03:04:11;;;;;;;;;;;16.90;73.00;;;16.03;nan;96363.16;4935801;29;19923;-83
2023/05/27 03:06:40;;;;;;;;;;;16.90;73.00;;;16.04;nan;96362.03;4935866;29;19922;-83
2023/05/27 03:09:08;;;;;;;;;;;16.90;72.90;;;16.05;nan;96360.13;4951114;29;19929;-83
2023/05/27 03:11:37;;;;;;;;;;;16.90;72.80;;;16.06;nan;96364.50;4951500;29;19922;-84
2023/05/27 03:14:05;;;;;;;;;;;16.90;73.10;;;16.05;nan;96351.81;4935787;29;19923;-83
2023/05/27 03:16:33;;;;;;;;;;;16.90;73.10;;;16.05;nan;96347.09;4952750;29;19923;-83
2023/05/27 03:19:03;;;;;;;;;;;16.90;73.10;;;16.06;nan;96348.75;4954404;29;19926;-83
2023/05/27 03:21:32;;;;;;;;;;;16.90;73.00;;;16.05;nan;96351.81;4938913;29;20240;-84
2023/05/27 03:24:00;;;;;;;;;;;16.90;72.50;;;16.01;nan;96351.59;4954831;29;19958;-84
2023/05/27 03:26:28;;;;;;;;;;;16.90;72.80;;;15.99;nan;96355.78;4954717;29;20215;-84
2023/05/27 03:28:57;;;;;;;;;;;16.80;72.60;;;15.99;nan;96351.09;4970300;28;19944;-84
2023/05/27 03:31:25;;;;;;;;;;;16.80;72.70;;;16.00;nan;96357.44;4938715;29;19922;-83
2023/05/27 03:34:00;;;;;;;;;;;16.80;72.70;;;15.98;nan;96360.50;4938996;29;19938;-84
2023/05/27 03:36:29;;;;;;;;;;;16.80;72.80;;;15.98;nan;96362.44;4938582;29;19922;-83
2023/05/27 03:38:57;;;;;;;;;;;16.80;72.60;;;15.98;nan;96370.72;4954162;29;19953;-84
2023/05/27 03:41:27;;;;;;;;;;;16.80;72.60;;;15.98;nan;96367.94;4954457;29;19923;-84
2023/05/27 03:43:56;;;;;;;;;;;16.80;72.70;;;15.99;nan;96375.09;4954430;29;19922;-84
2023/05/27 03:46:24;;;;;;;;;;;16.80;72.70;;;15.97;nan;96369.06;4938478;29;19929;-84
2023/05/27 03:48:53;;;;;;;;;;;16.80;72.70;;;15.98;nan;96370.72;4954193;29;19923;-83
2023/05/27 03:51:21;;;;;;;;;;;16.80;72.70;;;15.99;nan;96366.81;4938395;29;19929;-84
2023/05/27 03:53:50;;;;;;;;;;;16.80;72.70;;;16.00;nan;96371.22;4938736;29;19929;-84
2023/05/27 03:56:18;;;;;;;;;;;16.80;72.70;;;16.00;nan;96371.22;4954998;29;19929;-84
2023/05/27 03:58:46;;;;;;;;;;;16.80;72.70;;;16.02;nan;96385.56;4937956;29;19929;-84
2023/05/27 04:01:16;;;;;;;;;;;16.90;73.00;;;16.02;nan;96380.84;4970198;28;20228;-84
2023/05/27 04:03:44;;;;;;;;;;;16.90;73.00;;;16.03;nan;96382.50;4938485;29;19923;-83
2023/05/27 04:06:15;;;;;;;;;;;16.90;73.00;;;16.06;nan;96375.56;4938200;29;19928;-84
2023/05/27 04:08:43;;;;;;;;;;;16.90;73.00;;;16.07;nan;96379.97;4953720;29;19922;-83
2023/05/27 04:11:13;;;;;;;;;;;16.90;73.20;;;16.09;nan;96380.47;4954175;29;19928;-83
2023/05/27 04:13:41;;;;;;;;;;;16.90;73.10;;;16.11;nan;96372.69;4938075;29;19922;-84
2023/05/27 04:16:10;;;;;;;;;;;16.90;73.20;;;16.13;nan;96381.50;4938147;29;19923;-84
2023/05/27 04:18:38;;;;;;;;;;;17.00;73.20;;;16.14;nan;96363.81;4937721;29;19929;-84
2023/05/27 04:21:06;;;;;;;;;;;17.00;73.30;;;16.17;nan;96370.66;4953897;29;19929;-84
2023/05/27 04:23:35;;;;;;;;;;;17.00;73.40;;;16.20;nan;96370.88;4938078;29;19922;-83
2023/05/27 04:26:06;;;;;;;;;;;17.00;73.50;;;16.24;nan;96376.63;4938206;29;19922;-84
2023/05/27 04:28:39;;;;;;;;;;;17.10;73.50;;;16.26;nan;96379.91;4936028;29;20091;-83
2023/05/27 04:31:12;;;;;;;;;;;17.10;73.50;;;16.30;nan;96380.13;4953769;29;19928;-84
2023/05/27 04:33:46;;;;;;;;;;;17.10;73.40;;;16.32;nan;96373.16;4953780;29;19922;-84
2023/05/27 04:36:16;;;;;;;;;;;17.10;73.30;;;16.33;nan;96369.28;4953645;29;19922;-84
2023/05/27 04:39:05;;;;;;;;;;;17.20;73.00;;;16.35;nan;96367.03;4953065;29;19929;-84
2023/05/27 04:41:35;;;;;;;;;;;17.20;73.30;;;16.38;nan;96376.66;4937726;29;19922;-84
2023/05/27 04:44:05;;;;;;;;;;;17.20;73.40;;;16.39;nan;96372.78;4953344;29;19926;-84
2023/05/27 04:46:40;;;;;;;;;;;17.20;73.40;;;16.41;nan;96376.06;4953790;29;19923;-84
2023/05/27 04:49:09;;;;;;;;;;;17.20;73.30;;;16.43;nan;96376.56;4937129;29;19929;-84
2023/05/27 04:51:37;;;;;;;;;;;17.20;73.60;;;16.45;nan;96377.09;4953454;29;20240;-84
2023/05/27 04:54:06;;;;;;;;;;;17.20;73.70;;;16.49;nan;96380.88;4953404;29;19922;-84
2023/05/27 04:56:35;;;;;;;;;;;17.30;74.20;;;16.52;nan;96371.16;4937600;29;19922;-84
2023/05/27 04:59:06;;;;;;;;;;;17.30;74.30;;;16.55;nan;96371.38;4952904;29;19933;-84
2023/05/27 05:01:49;;;;;;;;;;;17.30;74.10;;;16.60;nan;96377.91;4953317;29;19923;-84
2023/05/27 05:04:25;;;;;;;;;;;17.40;74.10;;;16.63;nan;96378.13;4953304;29;19929;-84
2023/05/27 05:06:59;;;;;;;;;;;17.40;74.30;;;16.67;nan;96379.16;4969321;28;19929;-84
2023/05/27 05:09:28;;;;;;;;;;;17.40;74.10;;;16.70;nan;96372.22;4936748;29;19923;-84
2023/05/27 05:12:03;;;;;;;;;;;17.50;74.30;;;16.72;nan;96372.69;4937187;29;19941;-83
2023/05/27 05:14:32;;;;;;;;;;;17.50;74.10;;;16.74;nan;96375.97;4952990;29;19923;-84
2023/05/27 05:17:00;;;;;;;;;;;17.50;74.00;;;16.78;nan;96376.22;4953135;29;20104;-83
2023/05/27 05:19:30;;;;;;;;;;;17.60;74.00;;;16.80;nan;96377.53;4952757;29;19945;-84
2023/05/27 05:21:58;;;;;;;;;;;17.60;74.00;;;16.82;nan;96371.69;4953028;29;19923;-84
2023/05/27 05:24:29;;;;;;;;;;;17.60;73.90;;;16.82;nan;96368.91;4969168;28;19923;-84
2023/05/27 05:26:58;;;;;;;;;;;17.60;73.90;;;16.83;nan;96363.09;4969371;28;19929;-84
2023/05/27 05:29:27;;;;;;;;;;;17.60;73.80;;;16.83;nan;96376.94;4952948;29;19923;-84
2023/05/27 05:31:56;;;;;;;;;;;17.60;73.70;;;16.86;nan;96376.28;4952793;28;19929;-83
2023/05/27 05:34:24;;;;;;;;;;;17.60;73.70;;;16.86;nan;96370.75;4936860;29;19944;-83
2023/05/27 05:36:53;;;;;;;;;;;17.60;73.60;;;16.88;nan;96374.03;4952895;29;19937;-84
2023/05/27 05:39:21;;;;;;;;;;;17.70;73.60;;;16.92;nan;96373.44;4952121;29;20096;-83
2023/05/27 05:41:53;;;;;;;;;;;17.70;73.60;;;16.94;nan;96377.53;4937016;29;19923;-84
2023/05/27 05:44:22;;;;;;;;;;;17.70;73.60;;;16.99;nan;96380.22;4936800;29;19923;-83
2023/05/27 05:46:52;;;;;;;;;;;17.80;73.50;;;17.02;nan;96378.78;4969044;28;19929;-83
2023/05/27 05:49:23;;;;;;;;;;;17.80;73.30;;;17.07;nan;96378.69;4936214;29;19923;-84
2023/05/27 05:51:51;;;;;;;;;;;17.80;73.20;;;17.12;nan;96384.09;4952571;28;20198;-83
2023/05/27 05:54:20;;;;;;;;;;;17.90;73.20;;;17.18;nan;96382.88;4952585;29;19922;-84
2023/05/27 05:56:53;;;;;;;;;;;17.90;73.10;;;17.23;nan;96381.13;4952679;29;19929;-83
2023/05/27 05:59:21;;;;;;;;;;;18.00;73.00;;;17.28;nan;96386.53;4952355;29;19922;-83
2023/05/27 06:01:49;;;;;;;;;;;18.00;73.10;;;17.32;nan;96388.38;4952671;29;19923;-83
2023/05/27 06:04:19;;;;;;;;;;;18.10;72.90;;;17.38;nan;96391.03;4936526;29;19922;-83
2023/05/27 06:06:49;;;;;;;;;;;18.10;72.90;;;17.42;nan;96394.84;4968574;28;19922;-83
2023/05/27 06:09:17;;;;;;;;;;;18.20;72.90;;;17.46;nan;96388.38;4951906;29;19929;-84
2023/05/27 06:11:46;;;;;;;;;;;18.20;72.90;;;17.51;nan;96392.13;4936372;29;19929;-83
2023/05/27 06:14:15;;;;;;;;;;;18.20;72.90;;;17.55;nan;96387.63;4952183;29;19923;-84
2023/05/27 06:16:43;;;;;;;;;;;18.30;72.80;;;17.57;nan;96388.94;4936482;29;19933;-83
2023/05/27 06:19:14;;;;;;;;;;;18.30;72.50;;;17.58;nan;96387.00;4951723;29;19922;-83
2023/05/27 06:21:42;;;;;;;;;;;18.30;72.40;;;17.58;nan;96387.00;4968431;28;19923;-83
2023/05/27 06:24:20;;;;;;;;;;;18.30;72.90;;;17.60;nan;96395.81;4951936;29;20096;-83
2023/05/27 06:26:54;;;;;;;;;;;18.40;72.60;;;17.62;nan;96399.09;4968378;28;19930;-84
2023/05/27 06:29:22;;;;;;;;;;;18.40;72.60;;;17.63;nan;96397.94;4951710;29;19928;-84
2023/05/27 06:31:50;;;;;;;;;;;18.40;72.30;;;17.62;nan;96396.34;4936163;29;19922;-84
2023/05/27 06:34:18;;;;;;;;;;;18.40;72.20;;;17.63;nan;96395.19;4968236;28;19923;-83
2023/05/27 06:36:48;;;;;;;;;;;18.40;72.20;;;17.63;nan;96397.94;4968121;28;19953;-84
2023/05/27 06:39:17;;;;;;;;;;;18.40;72.10;;;17.62;nan;96396.34;4951510;29;19922;-84
2023/05/27 06:41:46;;;;;;;;;;;18.40;72.00;;;17.60;nan;96399.41;4953022;29;19922;-84
2023/05/27 06:44:33;;;;;;;;;;;18.40;72.00;;;17.61;nan;96403.00;4953061;29;19923;-83
2023/05/27 06:47:06;;;;;;;;;;;18.40;72.00;;;17.64;nan;96405.13;4936189;29;19937;-83
2023/05/27 06:49:35;;;;;;;;;;;18.40;72.10;;;17.67;nan;96404.50;4935241;29;19923;-83
2023/05/27 06:52:06;;;;;;;;;;;18.40;72.20;;;17.74;nan;96413.22;4938102;29;19923;-83
2023/05/27 06:54:43;;;;;;;;;;;18.40;72.10;;;17.81;nan;96409.19;4939536;29;19929;-83
2023/05/27 06:57:41;;;;;;;;;;;18.50;72.50;;;17.82;nan;96405.28;4937897;28;20134;-84
2023/05/27 07:00:16;;;;;;;;;;;18.50;71.80;;;17.79;nan;96407.53;4938606;29;19924;-83
2023/05/27 07:02:57;;;;;;;;;;;18.50;71.60;;;17.79;nan;96409.50;4956518;29;19926;-84
2023/05/27 07:05:25;;;;;;;;;;;18.50;71.90;;;17.82;nan;96410.81;4954831;29;19923;-84
2023/05/27 07:07:53;;;;;;;;;;;18.60;72.30;;;17.85;nan;96405.47;4939033;29;19922;-84
2023/05/27 07:10:22;;;;;;;;;;;18.60;72.10;;;17.89;nan;96400.13;4954272;29;20230;-83
2023/05/27 07:12:51;;;;;;;;;;;18.60;72.20;;;17.93;nan;96401.13;4954999;29;19929;-84
2023/05/27 07:15:27;;;;;;;;;;;18.60;72.00;;;17.98;nan;96401.06;4955016;29;19929;-84
2023/05/27 07:17:56;;;;;;;;;;;18.70;72.00;;;18.01;nan;96394.06;4939031;29;19923;-83
2023/05/27 07:20:24;;;;;;;;;;;18.70;72.30;;;18.03;nan;96394.56;4954435;28;19922;-82
2023/05/27 07:22:52;;;;;;;;;;;18.70;71.90;;;18.07;nan;96388.09;4970895;28;19926;-83
2023/05/27 07:25:20;;;;;;;;;;;18.80;72.00;;;18.11;nan;96395.78;4954876;29;19929;-83
2023/05/27 07:27:48;;;;;;;;;;;18.80;71.70;;;18.13;nan;96396.28;4954847;29;20123;-83
2023/05/27 07:30:18;;;;;;;;;;;18.90;71.80;;;18.13;nan;96388.78;4938291;29;20232;-84
2023/05/27 07:32:52;;;;;;;;;;;18.90;71.70;;;18.13;nan;96391.56;4954913;29;19922;-83
2023/05/27 07:35:21;;;;;;;;;;;18.90;71.70;;;18.14;nan;96393.19;4955873;29;19928;-83
2023/05/27 07:37:49;;;;;;;;;;;18.90;71.90;;;18.14;nan;96386.84;4954632;29;20122;-83
2023/05/27 07:40:17;;;;;;;;;;;18.90;71.70;;;18.15;nan;96385.69;4938050;29;20099;-83
2023/05/27 07:42:45;;;;;;;;;;;18.90;71.70;;;18.14;nan;96378.53;4938745;29;19929;-83
2023/05/27 07:45:14;;;;;;;;;;;18.90;71.70;;;18.14;nan;96384.06;4954604;29;20250;-82
2023/05/27 07:47:43;;;;;;;;;;;18.90;71.60;;;18.14;nan;96384.06;4938527;29;20232;-83
2023/05/27 07:50:11;;;;;;;;;;;18.90;71.60;;;18.14;nan;96379.34;4937882;29;19927;-83
2023/05/27 07:52:44;;;;;;;;;;;18.90;71.70;;;18.15;nan;96377.38;4954730;29;19933;-83
2023/05/27 07:55:25;;;;;;;;;;;18.90;71.80;;;18.15;nan;96378.22;4938573;29;19923;-83
2023/05/27 07:57:56;;;;;;;;;;;18.90;71.80;;;18.15;nan;96374.59;4938484;29;19923;-82
2023/05/27 08:00:27;;;;;;;;;;;18.90;71.60;;;18.15;nan;96377.38;4937787;29;20138;-82
2023/05/27 08:02:57;;;;;;;;;;;18.90;71.60;;;18.13;nan;96388.78;4955291;29;19923;-82
2023/05/27 08:05:48;;;;;;;;;;;18.90;71.00;;;18.12;nan;96380.78;4944893;29;19922;-83
2023/05/27 08:08:36;;;;;;;;;;;18.90;71.10;;;18.06;nan;96378.13;4953817;29;19928;-83
2023/05/27 08:11:16;;;;;;;;;;;18.90;71.20;;;18.05;nan;96386.78;4938364;29;19929;-84
2023/05/27 08:14:02;;;;;;;;;;;18.80;71.10;;;18.02;nan;96388.19;4954162;29;19922;-83
2023/05/27 08:16:51;;;;;;;;;;;18.80;71.10;;;17.99;nan;96388.84;4950433;29;19932;-83
2023/05/27 08:19:45;;;;;;;;;;;18.80;71.20;;;17.97;nan;96390.25;4953501;29;19923;-83
2023/05/27 08:22:22;;;;;;;;;;;18.70;71.10;;;17.95;nan;96387.81;4938050;29;19922;-83
2023/05/27 08:25:19;;;;;;;;;;;18.70;71.20;;;17.94;nan;96383.41;4953729;28;19922;-84
2023/05/27 08:28:06;;;;;;;;;;;18.70;71.00;;;17.95;nan;96390.56;4953959;29;19929;-83
2023/05/27 08:30:57;;;;;;;;;;;18.70;71.30;;;17.97;nan;96385.56;4951628;28;19923;-83
2023/05/27 08:33:40;;;;;;;;;;;18.70;71.20;;;18.00;nan;96390.50;4937970;29;19929;-83
2023/05/27 08:36:11;;;;;;;;;;;18.70;70.60;;;18.03;nan;96384.31;4937921;29;19922;-84
2023/05/27 08:38:40;;;;;;;;;;;18.80;70.80;;;18.06;nan;96386.44;4937386;29;20606;-83
2023/05/27 08:41:17;;;;;;;;;;;18.80;70.40;;;18.07;nan;96379.78;4937833;29;19929;-83
2023/05/27 08:43:45;;;;;;;;;;;18.80;70.70;;;;;;4937887;29;19932;-83
2023/05/27 08:46:14;;;;;;;;;;;18.80;70.50;;;18.06;nan;96378.13;4953473;29;19929;-83
2023/05/27 08:48:42;;;;;;;;;;;18.90;70.60;;;18.07;nan;96374.25;4937168;29;19922;-83
2023/05/27 08:51:12;;;;;;;;;;;18.90;70.60;;;18.07;nan;96374.25;4937478;29;19922;-83
2023/05/27 08:53:40;;;;;;;;;;;18.90;70.60;;;18.08;nan;96375.88;4953653;29;19929;-83
2023/05/27 08:56:08;;;;;;;;;;;18.90;70.70;;;18.08;nan;96370.34;4953409;29;19923;-83
2023/05/27 08:58:38;;;;;;;;;;;18.90;70.60;;;;;;4953354;29;19922;-82
2023/05/27 09:01:06;;;;;;;;;;;18.90;69.90;;;18.09;nan;96366.44;4937683;29;19922;-82
2023/05/27 09:03:34;;;;;;;;;;;18.90;70.40;;;;;;4937906;29;19929;-82
2023/05/27 09:06:04;;;;;;;;;;;18.90;70.40;;;18.09;nan;96366.44;4937660;29;19923;-81
2023/05/27 09:08:33;;;;;;;;;;;18.90;70.40;;;18.09;nan;96358.13;4937187;29;19923;-82
2023/05/27 09:11:01;;;;;;;;;;;18.90;70.40;;;;;;4937484;29;20098;-82
2023/05/27 09:13:29;;;;;;;;;;;18.90;70.40;;;18.09;nan;96355.34;4952942;29;19926;-82
2023/05/27 09:16:02;;;;;;;;;;;18.90;70.60;;;18.11;nan;96357.00;4953232;29;19922;-82
2023/05/27 09:18:30;;;;;;;;;;;18.90;70.60;;;18.13;nan;96357.50;4937221;29;20241;-82
2023/05/27 09:20:58;;;;;;;;;;;18.90;70.60;;;18.14;nan;96356.38;4937840;29;19923;-82
2023/05/27 09:23:26;;;;;;;;;;;18.90;70.70;;;18.14;nan;96345.28;4953828;29;20117;-82
2023/05/27 09:25:55;;;;;;;;;;;18.90;70.60;;;18.15;nan;96352.44;4953458;29;19923;-82
2023/05/27 09:28:24;;;;;;;;;;;18.90;70.60;;;18.14;nan;96340.53;4937552;29;19922;-82
2023/05/27 09:30:53;;;;;;;;;;;18.90;70.60;;;18.14;nan;96339.75;4953362;29;19922;-82
2023/05/27 09:33:25;;;;;;;;;;;18.90;70.70;;;18.15;nan;96335.81;4953162;29;20244;-82
2023/05/27 09:35:53;;;;;;;;;;;18.90;70.60;;;18.14;nan;96334.19;4937164;29;19923;-82
2023/05/27 09:38:20;;;;;;;;;;;18.90;70.70;;;18.14;nan;96323.91;4953948;29;19923;-83
2023/05/27 09:40:48;;;;;;;;;;;18.90;70.70;;;18.13;nan;96322.28;4952562;29;19923;-82
2023/05/27 09:43:18;;;;;;;;;;;18.90;70.80;;;18.16;nan;96331.91;4953229;29;19923;-83
2023/05/27 09:45:46;;;;;;;;;;;18.90;71.00;;;18.14;nan;96317.56;4952752;29;19945;-83
2023/05/27 09:48:14;;;;;;;;;;;18.90;71.00;;;18.14;nan;96323.13;4952712;29;20103;-83
2023/05/27 09:50:42;;;;;;;;;;;18.90;71.00;;;18.11;nan;96319.00;4952323;29;19929;-83
2023/05/27 09:53:10;;;;;;;;;;;18.90;71.00;;;18.09;nan;96316.56;4936946;29;19923;-82
2023/05/27 09:55:39;;;;;;;;;;;18.90;71.10;;;18.07;nan;96313.28;4952664;29;19923;-83
2023/05/27 09:58:07;;;;;;;;;;;18.90;71.20;;;18.07;nan;96315.25;4952847;29;19922;-82
2023/05/27 10:00:36;;;;;;;;;;;18.90;71.30;;;18.06;nan;96317.19;4951913;29;20122;-82
2023/05/27 10:03:06;;;;;;;;;;;18.90;71.30;;;18.06;nan;96308.06;4952556;29;19922;-82
2023/05/27 10:05:34;;;;;;;;;;;18.80;71.10;;;18.05;nan;96307.25;4952447;29;19929;-83
2023/05/27 10:08:03;;;;;;;;;;;18.80;71.20;;;18.04;nan;96302.03;4968533;28;19923;-83
2023/05/27 10:10:31;;;;;;;;;;;18.80;71.10;;;18.01;nan;96300.69;4935917;29;19929;-83
2023/05/27 10:12:59;;;;;;;;;;;18.80;71.20;;;18.01;nan;96297.91;4952477;29;19922;-83
2023/05/27 10:15:28;;;;;;;;;;;18.80;71.20;;;18.00;nan;96298.25;4952458;29;19928;-83
2023/05/27 10:17:58;;;;;;;;;;;18.80;71.30;;;17.99;nan;96291.06;4952506;29;19929;-83
2023/05/27 10:20:31;;;;;;;;;;;18.80;71.40;;;17.97;nan;96290.53;4952856;29;20121;-83
2023/05/27 10:23:09;;;;;;;;;;;18.70;71.40;;;17.96;nan;96284.19;4952358;29;19923;-84
2023/05/27 10:25:37;;;;;;;;;;;18.70;71.30;;;17.94;nan;96276.19;4952432;29;19929;-84
2023/05/27 10:28:05;;;;;;;;;;;18.70;71.40;;;17.94;nan;96276.19;4939692;29;19929;-83
2023/05/27 10:30:44;;;;;;;;;;;18.70;71.30;;;17.94;nan;96287.25;4955058;29;19922;-83
2023/05/27 10:33:13;;;;;;;;;;;18.80;71.40;;;17.93;nan;96284.81;4955701;29;19923;-83
2023/05/27 10:35:42;;;;;;;;;;;18.70;71.10;;;17.92;nan;96288.72;4955629;29;19923;-83
2023/05/27 10:38:17;;;;;;;;;;;18.70;71.20;;;17.90;nan;96297.34;4955556;29;20238;-83
2023/05/27 10:40:46;;;;;;;;;;;18.70;71.40;;;17.89;nan;96289.34;4955098;29;19928;-83
2023/05/27 10:43:17;;;;;;;;;;;18.70;71.50;;;17.86;nan;96296.34;4956582;29;19922;-83
2023/05/27 10:45:46;;;;;;;;;;;18.60;71.50;;;17.85;nan;96310.50;4956743;29;20207;-83
2023/05/27 10:48:19;;;;;;;;;;;18.60;71.60;;;17.83;nan;96301.69;4955294;29;19928;-84
2023/05/27 10:50:53;;;;;;;;;;;18.60;71.60;;;17.79;nan;96287.66;4939198;29;19928;-83
2023/05/27 10:53:21;;;;;;;;;;;18.60;71.80;;;17.77;nan;96282.44;4971404;28;19929;-83
2023/05/27 10:55:50;;;;;;;;;;;18.60;71.80;;;17.76;nan;96283.56;4955246;29;20145;-84
2023/05/27 10:58:18;;;;;;;;;;;18.50;71.90;;;17.75;nan;96283.88;4939010;29;19922;-85
2023/05/27 11:00:47;;;;;;;;;;;18.50;72.60;;;17.73;nan;96291.69;4954922;29;19923;-85
2023/05/27 11:03:21;;;;;;;;;;;18.50;73.30;;;17.71;nan;96289.25;4939543;29;19929;-84
2023/05/27 11:05:58;;;;;;;;;;;18.50;73.30;;;17.69;nan;96291.50;4955304;29;19929;-85
2023/05/27 11:08:26;;;;;;;;;;;18.50;73.30;;;17.67;nan;96288.22;4938337;29;19930;-85
2023/05/27 11:10:59;;;;;;;;;;;18.40;73.00;;;17.66;nan;96289.34;4955045;29;20013;-84
2023/05/27 11:13:33;;;;;;;;;;;18.40;73.80;;;17.64;nan;96288.84;4955117;29;19927;-85
2023/05/27 11:16:02;;;;;;;;;;;18.40;74.30;;;17.62;nan;96297.47;4939249;29;19929;-86
2023/05/27 11:18:39;;;;;;;;;;;18.40;74.20;;;17.61;nan;96304.16;4938767;29;19929;-86
2023/05/27 11:21:07;;;;;;;;;;;18.40;73.20;;;17.61;nan;96311.66;4955202;29;19922;-84
2023/05/27 11:23:36;;;;;;;;;;;18.40;73.40;;;17.61;nan;96317.19;4939167;29;19929;-86
2023/05/27 11:26:05;;;;;;;;;;;18.40;73.70;;;17.59;nan;96325.78;4954886;29;20209;-86
2023/05/27 11:28:33;;;;;;;;;;;18.40;73.60;;;17.58;nan;96337.97;4938445;29;19930;-86
2023/05/27 11:31:03;;;;;;;;;;;18.40;75.20;;;17.58;nan;96348.25;4938933;29;19926;-86
2023/05/27 11:33:34;;;;;;;;;;;18.40;75.10;;;17.54;nan;96344.47;4938934;29;19945;-86
2023/05/27 11:36:08;;;;;;;;;;;18.30;74.30;;;17.54;nan;96358.31;4938878;29;19931;-85
2023/05/27 11:38:50;;;;;;;;;;;18.30;73.70;;;17.51;nan;96345.06;4937760;29;19922;-86
2023/05/27 11:41:18;;;;;;;;;;;18.30;73.50;;;17.48;nan;96336.28;4938762;29;19922;-86
2023/05/27 11:43:50;;;;;;;;;;;18.30;74.10;;;17.48;nan;96335.47;4970650;28;20248;-86
2023/05/27 11:46:18;;;;;;;;;;;18.30;74.20;;;17.45;nan;96341.59;4938814;29;19929;-86
2023/05/27 11:48:47;;;;;;;;;;;18.20;74.10;;;17.43;nan;96343.88;4937976;29;19929;-86
2023/05/27 11:51:16;;;;;;;;;;;18.20;74.00;;;17.41;nan;96335.88;4954451;29;19930;-86